sensor_id;sensor_type;location;lat;lon;timestamp;temperature;humidity
19898;DHT22;10111;50.814;4.572;2022-08-19T00:00:25;18.90;99.90
19898;DHT22;10111;50.814;4.572;2022-08-19T00:02:51;18.90;99.90
19898;DHT22;10111;50.814;4.572;2022-08-19T00:05:18;18.90;99.90
19898;DHT22;10111;50.814;4.572;2022-08-19T00:07:44;18.90;99.90
19898;DHT22;10111;50.814;4.572;2022-08-19T00:10:12;18.70;99.90
19898;DHT22;10111;50.814;4.572;2022-08-19T00:12:38;18.70;99.90
19898;DHT22;10111;50.814;4.572;2022-08-19T00:15:07;18.70;99.90
19898;DHT22;10111;50.814;4.572;2022-08-19T00:17:35;18.70;99.90
19898;DHT22;10111;50.814;4.572;2022-08-19T00:20:02;18.80;99.90
19898;DHT22;10111;50.814;4.572;2022-08-19T00:22:28;18.70;99.90
19898;DHT22;10111;50.814;4.572;2022-08-19T00:24:54;18.80;99.90
19898;DHT22;10111;50.814;4.572;2022-08-19T00:27:19;18.70;99.90
19898;DHT22;10111;50.814;4.572;2022-08-19T00:29:45;18.60;99.90
19898;DHT22;10111;50.814;4.572;2022-08-19T00:32:11;18.60;99.90
19898;DHT22;10111;50.814;4.572;2022-08-19T00:34:37;18.70;99.90
19898;DHT22;10111;50.814;4.572;2022-08-19T00:37:03;18.70;99.90
19898;DHT22;10111;50.814;4.572;2022-08-19T00:39:28;18.70;99.90
19898;DHT22;10111;50.814;4.572;2022-08-19T00:41:55;18.70;99.90
19898;DHT22;10111;50.814;4.572;2022-08-19T00:44:25;18.50;99.90
19898;DHT22;10111;50.814;4.572;2022-08-19T00:46:52;18.40;99.90
19898;DHT22;10111;50.814;4.572;2022-08-19T00:49:31;18.40;99.90
19898;DHT22;10111;50.814;4.572;2022-08-19T00:52:09;18.40;99.90
19898;DHT22;10111;50.814;4.572;2022-08-19T00:54:38;18.40;99.90
19898;DHT22;10111;50.814;4.572;2022-08-19T00:57:09;18.50;99.90
19898;DHT22;10111;50.814;4.572;2022-08-19T00:59:38;18.50;99.90
19898;DHT22;10111;50.814;4.572;2022-08-19T01:02:05;18.50;99.90
19898;DHT22;10111;50.814;4.572;2022-08-19T01:04:31;18.50;99.90
19898;DHT22;10111;50.814;4.572;2022-08-19T01:06:57;18.40;99.90
19898;DHT22;10111;50.814;4.572;2022-08-19T01:09:23;18.40;99.90
19898;DHT22;10111;50.814;4.572;2022-08-19T01:11:49;18.50;99.90
19898;DHT22;10111;50.814;4.572;2022-08-19T01:14:15;18.40;99.90
19898;DHT22;10111;50.814;4.572;2022-08-19T01:16:43;18.40;99.90
19898;DHT22;10111;50.814;4.572;2022-08-19T01:19:23;18.40;99.90
19898;DHT22;10111;50.814;4.572;2022-08-19T01:21:55;18.40;99.90
19898;DHT22;10111;50.814;4.572;2022-08-19T01:24:23;18.20;99.90
19898;DHT22;10111;50.814;4.572;2022-08-19T01:26:48;18.20;99.90
19898;DHT22;10111;50.814;4.572;2022-08-19T01:29:14;18.20;99.90
19898;DHT22;10111;50.814;4.572;2022-08-19T01:31:40;18.10;99.90
19898;DHT22;10111;50.814;4.572;2022-08-19T01:34:06;18.00;99.90
19898;DHT22;10111;50.814;4.572;2022-08-19T01:36:36;18.00;99.90
19898;DHT22;10111;50.814;4.572;2022-08-19T01:39:05;18.00;99.90
19898;DHT22;10111;50.814;4.572;2022-08-19T01:41:32;18.00;99.90
19898;DHT22;10111;50.814;4.572;2022-08-19T01:43:57;17.90;99.90
19898;DHT22;10111;50.814;4.572;2022-08-19T01:46:23;17.70;99.90
19898;DHT22;10111;50.814;4.572;2022-08-19T01:48:50;17.70;99.90
19898;DHT22;10111;50.814;4.572;2022-08-19T01:51:15;17.70;99.90
19898;DHT22;10111;50.814;4.572;2022-08-19T01:53:41;17.70;99.90
19898;DHT22;10111;50.814;4.572;2022-08-19T01:56:07;17.70;99.90
19898;DHT22;10111;50.814;4.572;2022-08-19T01:58:41;17.70;99.90
19898;DHT22;10111;50.814;4.572;2022-08-19T02:01:11;17.80;99.90
19898;DHT22;10111;50.814;4.572;2022-08-19T02:03:37;17.80;99.90
19898;DHT22;10111;50.814;4.572;2022-08-19T02:06:03;17.80;99.90
19898;DHT22;10111;50.814;4.572;2022-08-19T02:08:31;17.90;99.90
19898;DHT22;10111;50.814;4.572;2022-08-19T02:10:57;18.10;99.90
19898;DHT22;10111;50.814;4.572;2022-08-19T02:13:24;17.90;99.90
19898;DHT22;10111;50.814;4.572;2022-08-19T02:15:50;17.80;99.90
19898;DHT22;10111;50.814;4.572;2022-08-19T02:18:16;17.90;99.90
19898;DHT22;10111;50.814;4.572;2022-08-19T02:20:43;17.90;99.90
19898;DHT22;10111;50.814;4.572;2022-08-19T02:23:10;17.90;99.90
19898;DHT22;10111;50.814;4.572;2022-08-19T02:25:36;17.90;99.90
19898;DHT22;10111;50.814;4.572;2022-08-19T02:28:02;17.90;99.90
19898;DHT22;10111;50.814;4.572;2022-08-19T02:30:28;17.90;99.90
19898;DHT22;10111;50.814;4.572;2022-08-19T02:32:53;17.90;99.90
19898;DHT22;10111;50.814;4.572;2022-08-19T02:35:20;17.90;99.90
19898;DHT22;10111;50.814;4.572;2022-08-19T02:37:46;17.90;99.90
19898;DHT22;10111;50.814;4.572;2022-08-19T02:40:32;17.90;99.90
19898;DHT22;10111;50.814;4.572;2022-08-19T02:43:05;17.90;99.90
19898;DHT22;10111;50.814;4.572;2022-08-19T02:45:36;17.90;99.90
19898;DHT22;10111;50.814;4.572;2022-08-19T02:48:03;17.90;99.90
19898;DHT22;10111;50.814;4.572;2022-08-19T02:50:30;17.90;99.90
19898;DHT22;10111;50.814;4.572;2022-08-19T02:52:56;17.90;99.90
19898;DHT22;10111;50.814;4.572;2022-08-19T02:55:21;17.90;99.90
19898;DHT22;10111;50.814;4.572;2022-08-19T02:57:47;17.90;99.90
19898;DHT22;10111;50.814;4.572;2022-08-19T03:00:14;17.90;99.90
19898;DHT22;10111;50.814;4.572;2022-08-19T03:02:40;17.90;99.90
19898;DHT22;10111;50.814;4.572;2022-08-19T03:05:07;17.90;99.90
19898;DHT22;10111;50.814;4.572;2022-08-19T03:07:33;17.90;99.90
19898;DHT22;10111;50.814;4.572;2022-08-19T03:09:59;17.90;99.90
19898;DHT22;10111;50.814;4.572;2022-08-19T03:12:25;17.90;99.90
19898;DHT22;10111;50.814;4.572;2022-08-19T03:14:50;17.90;99.90
19898;DHT22;10111;50.814;4.572;2022-08-19T03:17:17;17.90;99.90
19898;DHT22;10111;50.814;4.572;2022-08-19T03:19:42;17.90;99.90
19898;DHT22;10111;50.814;4.572;2022-08-19T03:22:08;17.90;99.90
19898;DHT22;10111;50.814;4.572;2022-08-19T03:24:34;17.90;99.90
19898;DHT22;10111;50.814;4.572;2022-08-19T03:27:00;17.90;99.90
19898;DHT22;10111;50.814;4.572;2022-08-19T03:29:27;17.90;99.90
19898;DHT22;10111;50.814;4.572;2022-08-19T03:31:53;17.90;99.90
19898;DHT22;10111;50.814;4.572;2022-08-19T03:34:30;17.90;99.90
19898;DHT22;10111;50.814;4.572;2022-08-19T03:36:58;17.80;99.90
19898;DHT22;10111;50.814;4.572;2022-08-19T03:39:26;17.80;99.90
19898;DHT22;10111;50.814;4.572;2022-08-19T03:41:53;17.70;99.90
19898;DHT22;10111;50.814;4.572;2022-08-19T03:44:22;17.70;99.90
19898;DHT22;10111;50.814;4.572;2022-08-19T03:46:53;17.80;99.90
19898;DHT22;10111;50.814;4.572;2022-08-19T03:49:20;17.80;99.90
19898;DHT22;10111;50.814;4.572;2022-08-19T03:55:23;17.70;99.90
19898;DHT22;10111;50.814;4.572;2022-08-19T03:57:48;17.60;99.90
19898;DHT22;10111;50.814;4.572;2022-08-19T04:00:15;17.60;99.90
19898;DHT22;10111;50.814;4.572;2022-08-19T04:02:41;17.60;99.90
19898;DHT22;10111;50.814;4.572;2022-08-19T04:05:07;17.60;99.90
19898;DHT22;10111;50.814;4.572;2022-08-19T04:07:33;17.60;99.90
19898;DHT22;10111;50.814;4.572;2022-08-19T04:09:59;17.60;99.90
19898;DHT22;10111;50.814;4.572;2022-08-19T04:12:25;17.60;99.90
19898;DHT22;10111;50.814;4.572;2022-08-19T04:14:51;17.60;99.90
19898;DHT22;10111;50.814;4.572;2022-08-19T04:17:16;17.60;99.90
19898;DHT22;10111;50.814;4.572;2022-08-19T04:19:42;17.60;99.90
19898;DHT22;10111;50.814;4.572;2022-08-19T04:22:08;17.60;99.90
19898;DHT22;10111;50.814;4.572;2022-08-19T04:24:36;17.50;99.90
19898;DHT22;10111;50.814;4.572;2022-08-19T04:27:02;17.50;99.90
19898;DHT22;10111;50.814;4.572;2022-08-19T04:29:28;17.50;99.90
19898;DHT22;10111;50.814;4.572;2022-08-19T04:31:56;17.50;99.90
19898;DHT22;10111;50.814;4.572;2022-08-19T04:34:24;17.50;99.90
19898;DHT22;10111;50.814;4.572;2022-08-19T04:36:51;17.40;99.90
19898;DHT22;10111;50.814;4.572;2022-08-19T04:39:20;17.40;99.90
19898;DHT22;10111;50.814;4.572;2022-08-19T04:41:47;17.50;99.90
19898;DHT22;10111;50.814;4.572;2022-08-19T04:44:32;17.40;99.90
19898;DHT22;10111;50.814;4.572;2022-08-19T04:46:58;17.50;99.90
19898;DHT22;10111;50.814;4.572;2022-08-19T04:49:24;17.50;99.90
19898;DHT22;10111;50.814;4.572;2022-08-19T04:51:52;17.40;99.90
19898;DHT22;10111;50.814;4.572;2022-08-19T04:54:20;17.40;99.90
19898;DHT22;10111;50.814;4.572;2022-08-19T04:56:53;17.50;99.90
19898;DHT22;10111;50.814;4.572;2022-08-19T04:59:20;17.50;99.90
19898;DHT22;10111;50.814;4.572;2022-08-19T05:01:47;17.50;99.90
19898;DHT22;10111;50.814;4.572;2022-08-19T05:04:18;17.50;99.90
19898;DHT22;10111;50.814;4.572;2022-08-19T05:06:46;17.40;99.90
19898;DHT22;10111;50.814;4.572;2022-08-19T05:09:12;17.50;99.90
19898;DHT22;10111;50.814;4.572;2022-08-19T05:11:38;17.50;99.90
19898;DHT22;10111;50.814;4.572;2022-08-19T05:14:05;17.50;99.90
19898;DHT22;10111;50.814;4.572;2022-08-19T05:16:31;17.60;99.90
19898;DHT22;10111;50.814;4.572;2022-08-19T05:18:56;17.50;99.90
19898;DHT22;10111;50.814;4.572;2022-08-19T05:21:42;17.50;99.90
19898;DHT22;10111;50.814;4.572;2022-08-19T05:24:27;17.60;99.90
19898;DHT22;10111;50.814;4.572;2022-08-19T05:26:54;17.60;99.90
19898;DHT22;10111;50.814;4.572;2022-08-19T05:29:23;17.70;99.90
19898;DHT22;10111;50.814;4.572;2022-08-19T05:31:50;17.70;99.90
19898;DHT22;10111;50.814;4.572;2022-08-19T05:34:18;17.70;99.90
19898;DHT22;10111;50.814;4.572;2022-08-19T05:36:47;17.70;99.90
19898;DHT22;10111;50.814;4.572;2022-08-19T05:39:19;17.90;99.90
19898;DHT22;10111;50.814;4.572;2022-08-19T05:41:48;17.80;99.90
19898;DHT22;10111;50.814;4.572;2022-08-19T05:44:16;17.80;99.90
19898;DHT22;10111;50.814;4.572;2022-08-19T05:46:44;17.90;99.90
19898;DHT22;10111;50.814;4.572;2022-08-19T05:49:13;17.90;99.90
19898;DHT22;10111;50.814;4.572;2022-08-19T05:51:38;18.00;99.90
19898;DHT22;10111;50.814;4.572;2022-08-19T05:54:05;18.00;99.90
19898;DHT22;10111;50.814;4.572;2022-08-19T05:56:34;18.10;99.90
19898;DHT22;10111;50.814;4.572;2022-08-19T05:59:02;18.10;99.90
19898;DHT22;10111;50.814;4.572;2022-08-19T06:01:29;18.20;99.90
19898;DHT22;10111;50.814;4.572;2022-08-19T06:03:54;18.20;99.90
19898;DHT22;10111;50.814;4.572;2022-08-19T06:06:21;18.20;99.90
19898;DHT22;10111;50.814;4.572;2022-08-19T06:08:47;18.30;99.90
19898;DHT22;10111;50.814;4.572;2022-08-19T06:13:47;18.50;99.90
19898;DHT22;10111;50.814;4.572;2022-08-19T06:16:15;18.50;99.90
19898;DHT22;10111;50.814;4.572;2022-08-19T06:18:51;18.50;99.90
19898;DHT22;10111;50.814;4.572;2022-08-19T06:21:22;18.60;99.90
19898;DHT22;10111;50.814;4.572;2022-08-19T06:23:48;18.70;99.90
19898;DHT22;10111;50.814;4.572;2022-08-19T06:26:16;18.80;99.90
19898;DHT22;10111;50.814;4.572;2022-08-19T06:28:42;18.80;99.90
19898;DHT22;10111;50.814;4.572;2022-08-19T06:31:16;18.90;99.90
19898;DHT22;10111;50.814;4.572;2022-08-19T06:33:43;18.90;99.90
19898;DHT22;10111;50.814;4.572;2022-08-19T06:36:37;19.00;99.90
19898;DHT22;10111;50.814;4.572;2022-08-19T06:39:09;19.10;99.90
19898;DHT22;10111;50.814;4.572;2022-08-19T06:41:41;19.10;99.90
19898;DHT22;10111;50.814;4.572;2022-08-19T06:44:09;19.20;99.90
19898;DHT22;10111;50.814;4.572;2022-08-19T06:46:36;19.30;99.90
19898;DHT22;10111;50.814;4.572;2022-08-19T06:49:02;19.40;99.90
19898;DHT22;10111;50.814;4.572;2022-08-19T06:51:28;19.50;99.90
19898;DHT22;10111;50.814;4.572;2022-08-19T06:53:55;19.70;99.90
19898;DHT22;10111;50.814;4.572;2022-08-19T06:56:23;19.70;99.90
19898;DHT22;10111;50.814;4.572;2022-08-19T06:58:51;19.80;99.90
19898;DHT22;10111;50.814;4.572;2022-08-19T07:01:19;20.10;99.90
19898;DHT22;10111;50.814;4.572;2022-08-19T07:03:45;20.20;99.90
19898;DHT22;10111;50.814;4.572;2022-08-19T07:06:14;20.20;99.90
19898;DHT22;10111;50.814;4.572;2022-08-19T07:08:43;20.30;99.90
19898;DHT22;10111;50.814;4.572;2022-08-19T07:11:14;20.50;99.90
19898;DHT22;10111;50.814;4.572;2022-08-19T07:13:40;20.60;99.90
19898;DHT22;10111;50.814;4.572;2022-08-19T07:16:15;20.70;99.90
19898;DHT22;10111;50.814;4.572;2022-08-19T07:18:41;20.80;99.90
19898;DHT22;10111;50.814;4.572;2022-08-19T07:21:27;20.80;99.90
19898;DHT22;10111;50.814;4.572;2022-08-19T07:23:54;21.00;99.90
19898;DHT22;10111;50.814;4.572;2022-08-19T07:26:27;21.00;99.90
19898;DHT22;10111;50.814;4.572;2022-08-19T07:28:54;21.10;99.90
19898;DHT22;10111;50.814;4.572;2022-08-19T07:31:22;21.20;99.90
19898;DHT22;10111;50.814;4.572;2022-08-19T07:33:49;21.30;99.90
19898;DHT22;10111;50.814;4.572;2022-08-19T07:36:18;21.50;99.90
19898;DHT22;10111;50.814;4.572;2022-08-19T07:38:46;21.80;99.90
19898;DHT22;10111;50.814;4.572;2022-08-19T07:41:17;21.90;99.90
19898;DHT22;10111;50.814;4.572;2022-08-19T07:43:44;22.00;99.90
19898;DHT22;10111;50.814;4.572;2022-08-19T07:46:12;22.00;99.90
19898;DHT22;10111;50.814;4.572;2022-08-19T07:48:40;22.10;99.90
19898;DHT22;10111;50.814;4.572;2022-08-19T07:51:09;22.30;99.90
19898;DHT22;10111;50.814;4.572;2022-08-19T07:53:37;22.50;99.90
19898;DHT22;10111;50.814;4.572;2022-08-19T07:56:03;22.70;99.90
19898;DHT22;10111;50.814;4.572;2022-08-19T07:58:36;22.60;99.90
19898;DHT22;10111;50.814;4.572;2022-08-19T08:01:04;22.50;99.90
19898;DHT22;10111;50.814;4.572;2022-08-19T08:03:30;22.40;99.90
19898;DHT22;10111;50.814;4.572;2022-08-19T08:06:15;22.40;99.90
19898;DHT22;10111;50.814;4.572;2022-08-19T08:09:02;22.60;99.90
19898;DHT22;10111;50.814;4.572;2022-08-19T08:11:39;22.50;99.90
19898;DHT22;10111;50.814;4.572;2022-08-19T08:14:06;22.60;99.90
19898;DHT22;10111;50.814;4.572;2022-08-19T08:16:36;22.50;99.90
19898;DHT22;10111;50.814;4.572;2022-08-19T08:19:05;22.50;99.90
19898;DHT22;10111;50.814;4.572;2022-08-19T08:21:32;22.50;99.90
19898;DHT22;10111;50.814;4.572;2022-08-19T08:23:58;22.40;99.90
19898;DHT22;10111;50.814;4.572;2022-08-19T08:26:24;22.40;99.90
19898;DHT22;10111;50.814;4.572;2022-08-19T08:28:51;22.50;99.90
19898;DHT22;10111;50.814;4.572;2022-08-19T08:31:16;22.60;99.90
19898;DHT22;10111;50.814;4.572;2022-08-19T08:33:45;22.70;99.90
19898;DHT22;10111;50.814;4.572;2022-08-19T08:36:12;22.80;99.90
19898;DHT22;10111;50.814;4.572;2022-08-19T08:38:42;22.80;99.90
19898;DHT22;10111;50.814;4.572;2022-08-19T08:41:18;22.80;99.90
19898;DHT22;10111;50.814;4.572;2022-08-19T08:43:49;22.90;99.90
19898;DHT22;10111;50.814;4.572;2022-08-19T08:46:37;23.00;99.90
19898;DHT22;10111;50.814;4.572;2022-08-19T08:54:34;23.20;99.90
19898;DHT22;10111;50.814;4.572;2022-08-19T08:57:02;23.30;99.90
19898;DHT22;10111;50.814;4.572;2022-08-19T08:59:30;23.50;99.90
19898;DHT22;10111;50.814;4.572;2022-08-19T09:02:00;23.60;99.90
19898;DHT22;10111;50.814;4.572;2022-08-19T09:04:26;23.60;99.90
19898;DHT22;10111;50.814;4.572;2022-08-19T09:07:22;23.70;99.90
19898;DHT22;10111;50.814;4.572;2022-08-19T09:09:54;23.80;99.90
19898;DHT22;10111;50.814;4.572;2022-08-19T09:13:41;23.90;99.90
19898;DHT22;10111;50.814;4.572;2022-08-19T09:15:39;24.00;99.90
19898;DHT22;10111;50.814;4.572;2022-08-19T09:18:05;24.00;99.90
19898;DHT22;10111;50.814;4.572;2022-08-19T09:20:34;23.90;99.90
19898;DHT22;10111;50.814;4.572;2022-08-19T09:22:59;23.80;99.90
19898;DHT22;10111;50.814;4.572;2022-08-19T09:25:25;23.90;99.90
19898;DHT22;10111;50.814;4.572;2022-08-19T09:27:53;24.00;99.90
19898;DHT22;10111;50.814;4.572;2022-08-19T09:30:24;24.00;99.90
19898;DHT22;10111;50.814;4.572;2022-08-19T09:32:51;24.00;99.90
19898;DHT22;10111;50.814;4.572;2022-08-19T09:35:24;24.10;99.90
19898;DHT22;10111;50.814;4.572;2022-08-19T09:37:51;23.90;99.90
19898;DHT22;10111;50.814;4.572;2022-08-19T09:40:17;23.90;99.90
19898;DHT22;10111;50.814;4.572;2022-08-19T09:42:44;23.90;99.90
19898;DHT22;10111;50.814;4.572;2022-08-19T09:45:16;23.90;99.90
19898;DHT22;10111;50.814;4.572;2022-08-19T09:47:43;23.90;99.90
19898;DHT22;10111;50.814;4.572;2022-08-19T09:50:10;23.80;99.90
19898;DHT22;10111;50.814;4.572;2022-08-19T09:52:37;23.80;99.90
19898;DHT22;10111;50.814;4.572;2022-08-19T09:55:08;23.90;99.90
19898;DHT22;10111;50.814;4.572;2022-08-19T09:57:34;24.00;99.90
19898;DHT22;10111;50.814;4.572;2022-08-19T10:00:00;24.00;99.90
19898;DHT22;10111;50.814;4.572;2022-08-19T10:02:26;24.10;99.90
19898;DHT22;10111;50.814;4.572;2022-08-19T10:04:51;24.20;99.90
19898;DHT22;10111;50.814;4.572;2022-08-19T10:07:36;24.20;99.90
19898;DHT22;10111;50.814;4.572;2022-08-19T10:10:07;24.10;99.90
19898;DHT22;10111;50.814;4.572;2022-08-19T10:12:33;24.10;99.90
19898;DHT22;10111;50.814;4.572;2022-08-19T10:15:00;24.00;99.90
19898;DHT22;10111;50.814;4.572;2022-08-19T10:17:26;24.00;99.90
19898;DHT22;10111;50.814;4.572;2022-08-19T10:19:52;23.90;99.90
19898;DHT22;10111;50.814;4.572;2022-08-19T10:22:18;23.80;99.90
19898;DHT22;10111;50.814;4.572;2022-08-19T10:24:46;23.90;99.90
19898;DHT22;10111;50.814;4.572;2022-08-19T10:27:12;23.90;99.90
19898;DHT22;10111;50.814;4.572;2022-08-19T10:29:39;24.10;99.90
19898;DHT22;10111;50.814;4.572;2022-08-19T10:32:06;24.10;99.90
19898;DHT22;10111;50.814;4.572;2022-08-19T10:34:35;24.10;99.90
19898;DHT22;10111;50.814;4.572;2022-08-19T10:37:03;24.10;99.90
19898;DHT22;10111;50.814;4.572;2022-08-19T10:39:33;24.10;99.90
19898;DHT22;10111;50.814;4.572;2022-08-19T10:42:07;24.20;99.90
19898;DHT22;10111;50.814;4.572;2022-08-19T10:44:35;24.30;99.90
19898;DHT22;10111;50.814;4.572;2022-08-19T10:47:02;24.50;99.90
19898;DHT22;10111;50.814;4.572;2022-08-19T10:49:28;24.60;99.90
19898;DHT22;10111;50.814;4.572;2022-08-19T10:51:55;24.60;99.90
19898;DHT22;10111;50.814;4.572;2022-08-19T10:54:39;24.50;99.90
19898;DHT22;10111;50.814;4.572;2022-08-19T10:57:23;24.30;99.90
19898;DHT22;10111;50.814;4.572;2022-08-19T10:59:55;24.10;99.90
19898;DHT22;10111;50.814;4.572;2022-08-19T11:02:21;24.10;99.90
19898;DHT22;10111;50.814;4.572;2022-08-19T11:04:47;24.20;99.90
19898;DHT22;10111;50.814;4.572;2022-08-19T11:07:15;24.20;99.90
19898;DHT22;10111;50.814;4.572;2022-08-19T11:09:42;24.40;99.90
19898;DHT22;10111;50.814;4.572;2022-08-19T11:12:09;24.60;99.90
19898;DHT22;10111;50.814;4.572;2022-08-19T11:14:35;24.70;99.90
19898;DHT22;10111;50.814;4.572;2022-08-19T11:17:03;24.70;99.90
19898;DHT22;10111;50.814;4.572;2022-08-19T11:19:29;24.60;99.90
19898;DHT22;10111;50.814;4.572;2022-08-19T11:21:55;24.60;99.90
19898;DHT22;10111;50.814;4.572;2022-08-19T11:24:23;24.50;99.90
19898;DHT22;10111;50.814;4.572;2022-08-19T11:26:51;24.60;99.90
19898;DHT22;10111;50.814;4.572;2022-08-19T11:29:21;24.50;99.90
19898;DHT22;10111;50.814;4.572;2022-08-19T11:31:51;24.40;99.90
19898;DHT22;10111;50.814;4.572;2022-08-19T11:34:19;24.60;99.90
19898;DHT22;10111;50.814;4.572;2022-08-19T11:36:46;24.70;99.90
19898;DHT22;10111;50.814;4.572;2022-08-19T11:39:15;24.80;99.90
19898;DHT22;10111;50.814;4.572;2022-08-19T11:41:41;24.80;99.90
19898;DHT22;10111;50.814;4.572;2022-08-19T11:44:07;24.80;99.90
19898;DHT22;10111;50.814;4.572;2022-08-19T11:46:36;24.70;99.90
19898;DHT22;10111;50.814;4.572;2022-08-19T11:49:04;24.70;99.90
19898;DHT22;10111;50.814;4.572;2022-08-19T11:51:30;24.60;99.90
19898;DHT22;10111;50.814;4.572;2022-08-19T11:53:58;24.50;99.90
19898;DHT22;10111;50.814;4.572;2022-08-19T11:56:25;24.40;99.90
19898;DHT22;10111;50.814;4.572;2022-08-19T11:58:52;24.40;99.90
19898;DHT22;10111;50.814;4.572;2022-08-19T12:01:20;24.40;99.90
19898;DHT22;10111;50.814;4.572;2022-08-19T12:03:48;24.50;99.90
19898;DHT22;10111;50.814;4.572;2022-08-19T12:06:18;24.60;99.90
19898;DHT22;10111;50.814;4.572;2022-08-19T12:08:44;24.80;99.90
19898;DHT22;10111;50.814;4.572;2022-08-19T12:11:12;25.00;99.90
19898;DHT22;10111;50.814;4.572;2022-08-19T12:13:38;25.20;99.90
19898;DHT22;10111;50.814;4.572;2022-08-19T12:16:08;25.40;99.90
19898;DHT22;10111;50.814;4.572;2022-08-19T12:18:36;25.50;99.90
19898;DHT22;10111;50.814;4.572;2022-08-19T12:21:02;25.50;99.90
19898;DHT22;10111;50.814;4.572;2022-08-19T12:23:29;25.40;99.90
19898;DHT22;10111;50.814;4.572;2022-08-19T12:25:54;25.40;99.90
19898;DHT22;10111;50.814;4.572;2022-08-19T12:28:24;25.30;99.90
19898;DHT22;10111;50.814;4.572;2022-08-19T12:30:51;25.20;99.90
19898;DHT22;10111;50.814;4.572;2022-08-19T12:33:17;25.40;99.90
19898;DHT22;10111;50.814;4.572;2022-08-19T12:35:45;25.50;99.90
19898;DHT22;10111;50.814;4.572;2022-08-19T12:38:12;25.60;99.90
19898;DHT22;10111;50.814;4.572;2022-08-19T12:40:38;25.50;99.90
19898;DHT22;10111;50.814;4.572;2022-08-19T12:43:06;25.50;99.90
19898;DHT22;10111;50.814;4.572;2022-08-19T12:45:33;25.60;99.90
19898;DHT22;10111;50.814;4.572;2022-08-19T12:47:59;25.90;99.90
19898;DHT22;10111;50.814;4.572;2022-08-19T12:50:25;26.00;99.90
19898;DHT22;10111;50.814;4.572;2022-08-19T12:52:50;26.10;99.90
19898;DHT22;10111;50.814;4.572;2022-08-19T12:55:16;26.10;99.90
19898;DHT22;10111;50.814;4.572;2022-08-19T12:57:44;26.10;99.90
19898;DHT22;10111;50.814;4.572;2022-08-19T13:00:15;26.00;99.90
19898;DHT22;10111;50.814;4.572;2022-08-19T13:02:44;26.00;99.90
19898;DHT22;10111;50.814;4.572;2022-08-19T13:05:17;26.00;99.90
19898;DHT22;10111;50.814;4.572;2022-08-19T13:07:45;26.00;99.90
19898;DHT22;10111;50.814;4.572;2022-08-19T13:10:13;25.90;99.90
19898;DHT22;10111;50.814;4.572;2022-08-19T13:12:41;25.90;99.90
19898;DHT22;10111;50.814;4.572;2022-08-19T13:15:07;25.90;99.90
19898;DHT22;10111;50.814;4.572;2022-08-19T13:17:34;25.80;99.90
19898;DHT22;10111;50.814;4.572;2022-08-19T13:20:01;25.80;99.90
19898;DHT22;10111;50.814;4.572;2022-08-19T13:22:26;25.80;99.90
19898;DHT22;10111;50.814;4.572;2022-08-19T13:24:52;25.80;99.90
19898;DHT22;10111;50.814;4.572;2022-08-19T13:27:18;25.80;99.90
19898;DHT22;10111;50.814;4.572;2022-08-19T13:29:44;25.90;99.90
19898;DHT22;10111;50.814;4.572;2022-08-19T13:32:29;25.90;99.90
19898;DHT22;10111;50.814;4.572;2022-08-19T13:35:14;26.00;99.90
19898;DHT22;10111;50.814;4.572;2022-08-19T13:37:40;26.00;99.90
19898;DHT22;10111;50.814;4.572;2022-08-19T13:40:13;25.90;99.90
19898;DHT22;10111;50.814;4.572;2022-08-19T13:42:42;25.90;99.90
19898;DHT22;10111;50.814;4.572;2022-08-19T13:45:09;26.00;99.90
19898;DHT22;10111;50.814;4.572;2022-08-19T13:47:36;26.00;99.90
19898;DHT22;10111;50.814;4.572;2022-08-19T13:50:13;26.10;99.90
19898;DHT22;10111;50.814;4.572;2022-08-19T13:52:40;26.20;99.90
19898;DHT22;10111;50.814;4.572;2022-08-19T13:55:07;26.20;99.90
19898;DHT22;10111;50.814;4.572;2022-08-19T13:57:33;26.20;99.90
19898;DHT22;10111;50.814;4.572;2022-08-19T13:59:59;26.10;99.90
19898;DHT22;10111;50.814;4.572;2022-08-19T14:02:26;26.20;99.90
19898;DHT22;10111;50.814;4.572;2022-08-19T14:04:52;26.20;99.90
19898;DHT22;10111;50.814;4.572;2022-08-19T14:07:18;26.10;99.90
19898;DHT22;10111;50.814;4.572;2022-08-19T14:09:43;26.10;99.90
19898;DHT22;10111;50.814;4.572;2022-08-19T14:12:09;26.00;99.90
19898;DHT22;10111;50.814;4.572;2022-08-19T14:14:39;26.00;99.90
19898;DHT22;10111;50.814;4.572;2022-08-19T14:17:08;25.90;99.90
19898;DHT22;10111;50.814;4.572;2022-08-19T14:19:34;25.90;99.90
19898;DHT22;10111;50.814;4.572;2022-08-19T14:22:00;25.90;99.90
19898;DHT22;10111;50.814;4.572;2022-08-19T14:24:26;25.90;99.90
19898;DHT22;10111;50.814;4.572;2022-08-19T14:26:52;25.90;99.90
19898;DHT22;10111;50.814;4.572;2022-08-19T14:29:18;25.90;99.90
19898;DHT22;10111;50.814;4.572;2022-08-19T14:31:44;25.90;99.90
19898;DHT22;10111;50.814;4.572;2022-08-19T14:34:10;25.90;99.90
19898;DHT22;10111;50.814;4.572;2022-08-19T14:36:39;26.00;99.90
19898;DHT22;10111;50.814;4.572;2022-08-19T14:39:04;25.90;99.90
19898;DHT22;10111;50.814;4.572;2022-08-19T14:41:30;25.90;99.90
19898;DHT22;10111;50.814;4.572;2022-08-19T14:43:57;25.80;99.90
19898;DHT22;10111;50.814;4.572;2022-08-19T14:46:25;25.50;99.90
19898;DHT22;10111;50.814;4.572;2022-08-19T14:48:51;25.50;99.90
19898;DHT22;10111;50.814;4.572;2022-08-19T14:51:19;25.50;99.90
19898;DHT22;10111;50.814;4.572;2022-08-19T14:53:45;25.60;99.90
19898;DHT22;10111;50.814;4.572;2022-08-19T14:56:16;25.50;99.90
19898;DHT22;10111;50.814;4.572;2022-08-19T14:58:43;25.50;99.90
19898;DHT22;10111;50.814;4.572;2022-08-19T15:01:09;25.50;99.90
19898;DHT22;10111;50.814;4.572;2022-08-19T15:03:35;25.50;99.90
19898;DHT22;10111;50.814;4.572;2022-08-19T15:06:02;25.30;99.90
19898;DHT22;10111;50.814;4.572;2022-08-19T15:08:30;25.30;99.90
19898;DHT22;10111;50.814;4.572;2022-08-19T15:10:57;25.20;99.90
19898;DHT22;10111;50.814;4.572;2022-08-19T15:13:25;25.10;99.90
19898;DHT22;10111;50.814;4.572;2022-08-19T15:15:51;25.00;99.90
19898;DHT22;10111;50.814;4.572;2022-08-19T15:18:17;24.90;99.90
19898;DHT22;10111;50.814;4.572;2022-08-19T15:20:46;24.90;99.90
19898;DHT22;10111;50.814;4.572;2022-08-19T15:23:15;24.90;99.90
19898;DHT22;10111;50.814;4.572;2022-08-19T15:25:42;25.10;99.90
19898;DHT22;10111;50.814;4.572;2022-08-19T15:28:09;25.30;99.90
19898;DHT22;10111;50.814;4.572;2022-08-19T15:30:39;25.40;99.90
19898;DHT22;10111;50.814;4.572;2022-08-19T15:33:06;25.50;99.90
19898;DHT22;10111;50.814;4.572;2022-08-19T15:35:32;25.50;99.90
19898;DHT22;10111;50.814;4.572;2022-08-19T15:37:58;25.50;99.90
19898;DHT22;10111;50.814;4.572;2022-08-19T15:40:26;25.50;99.90
19898;DHT22;10111;50.814;4.572;2022-08-19T15:42:52;25.40;99.90
19898;DHT22;10111;50.814;4.572;2022-08-19T15:45:19;25.30;99.90
19898;DHT22;10111;50.814;4.572;2022-08-19T15:47:46;25.30;99.90